PWSweather.com
Personal Weather Stations
Station Observations
UWIDEPER1
Brown County, Depere, WI 54115

Brown CountyDepere, WI 54115

Lat: 44.44, Lon: -88.05

Elevation: 610

Station Type: Acurite 5in1

www.depereweather.com

High Low Average
Temperature 21.2°F-6.0°C 10.4°F-12.0°C 17.2°F-8.2°C
Dew Point 13.3°F-10.4°C 1.9°F-16.7°C 9.9°F-12.3°C
Winds 12.7 mph 20.4 kmh 2.3 mph 3.7 kmh 8.0 mph S12.9 kmh S
Wind Gusts 19.6 mph31.5 kmh 2.3 mph3.7 kmh 8.0 mph12.9 kmh
Humidity 88% 58% 73%
Pressure 30.34 in1027.4 mb 30.01 in1016.3 mb -
Precipitation 0.00 in0.0 mm - -
Hour Temp Dew Point Humidity Winds Wind Gusts Pressure Precip Precip Rate Daily Precip Total
12:00 AM 10.4°F-12.0°C 2.9°F-16.2°C 71% 4.6 mph S7.4 kmh S 3.5 mph5.6 kmh 30.34 in1027.4 mb - 0.00 in0.0 mm 0.00 in0.0 mm
12:10 AM 10.4°F-12.0°C 2.5°F-16.4°C 70% 4.6 mph S7.4 kmh S 4.6 mph7.4 kmh 30.33 in1027.1 mb - 0.00 in0.0 mm 0.00 in0.0 mm
12:15 AM 10.4°F-12.0°C 2.5°F-16.4°C 70% 5.8 mph S9.3 kmh S 4.6 mph7.4 kmh 30.33 in1027.1 mb - 0.00 in0.0 mm 0.00 in0.0 mm
12:20 AM 10.4°F-12.0°C 2.5°F-16.4°C 70% 3.5 mph WSW5.6 kmh WSW 3.5 mph5.6 kmh 30.33 in1027.1 mb - 0.00 in0.0 mm 0.00 in0.0 mm
12:25 AM 10.4°F-12.0°C 2.5°F-16.4°C 70% 4.6 mph SW7.4 kmh SW 8.1 mph13.0 kmh 30.32 in1026.8 mb - 0.00 in0.0 mm 0.00 in0.0 mm
12:30 AM 10.4°F-12.0°C 2.5°F-16.4°C 70% 4.6 mph S7.4 kmh S 4.6 mph7.4 kmh 30.32 in1026.8 mb - 0.00 in0.0 mm 0.00 in0.0 mm
12:35 AM 10.4°F-12.0°C 2.5°F-16.4°C 70% 6.9 mph S11.1 kmh S 8.1 mph13.0 kmh 30.31 in1026.4 mb - 0.00 in0.0 mm 0.00 in0.0 mm
12:40 AM 10.4°F-12.0°C 2.5°F-16.4°C 70% 4.6 mph E7.4 kmh E 8.1 mph13.0 kmh 30.30 in1026.1 mb - 0.00 in0.0 mm 0.00 in0.0 mm
12:45 AM 12.2°F-11.0°C 4.3°F-15.4°C 70% 4.6 mph E7.4 kmh E 5.8 mph9.3 kmh 30.30 in1026.1 mb - 0.00 in0.0 mm 0.00 in0.0 mm
12:50 AM 12.2°F-11.0°C 4.3°F-15.4°C 70% 5.8 mph E9.3 kmh E 8.1 mph13.0 kmh 30.29 in1025.7 mb - 0.00 in0.0 mm 0.00 in0.0 mm
12:55 AM 12.2°F-11.0°C 4.3°F-15.4°C 70% 5.8 mph S9.3 kmh S 2.3 mph3.7 kmh 30.29 in1025.7 mb - 0.00 in0.0 mm 0.00 in0.0 mm
01:00 AM 12.2°F-11.0°C 4.3°F-15.4°C 70% 2.3 mph SSE3.7 kmh SSE 3.5 mph5.6 kmh 30.29 in1025.7 mb - 0.00 in0.0 mm 0.00 in0.0 mm
01:10 AM 12.2°F-11.0°C 3.6°F-15.8°C 68% 6.9 mph SE11.1 kmh SE 11.5 mph18.5 kmh 30.29 in1025.7 mb - 0.00 in0.0 mm 0.00 in0.0 mm
01:15 AM 12.2°F-11.0°C 3.0°F-16.1°C 66% 5.8 mph ESE9.3 kmh ESE 5.8 mph9.3 kmh 30.28 in1025.4 mb - 0.00 in0.0 mm 0.00 in0.0 mm
01:20 AM 12.2°F-11.0°C 2.7°F-16.3°C 65% 5.8 mph S9.3 kmh S 9.2 mph14.8 kmh 30.27 in1025.1 mb - 0.00 in0.0 mm 0.00 in0.0 mm
01:25 AM 12.2°F-11.0°C 2.7°F-16.3°C 65% 6.9 mph S11.1 kmh S 9.2 mph14.8 kmh 30.28 in1025.4 mb - 0.00 in0.0 mm 0.00 in0.0 mm
01:30 AM 12.2°F-11.0°C 2.7°F-16.3°C 65% 6.9 mph S11.1 kmh S 10.4 mph16.7 kmh 30.26 in1024.7 mb - 0.00 in0.0 mm 0.00 in0.0 mm
01:35 AM 12.2°F-11.0°C 2.7°F-16.3°C 65% 6.9 mph SSW11.1 kmh SSW 11.5 mph18.5 kmh 30.26 in1024.7 mb - 0.00 in0.0 mm 0.00 in0.0 mm
01:40 AM 12.2°F-11.0°C 2.7°F-16.3°C 65% 6.9 mph SE11.1 kmh SE 10.4 mph16.7 kmh 30.25 in1024.4 mb - 0.00 in0.0 mm 0.00 in0.0 mm
01:45 AM 12.2°F-11.0°C 2.7°F-16.3°C 65% 5.8 mph S9.3 kmh S 11.5 mph18.5 kmh 30.26 in1024.7 mb - 0.00 in0.0 mm 0.00 in0.0 mm
01:50 AM 12.2°F-11.0°C 2.7°F-16.3°C 65% 6.9 mph SE11.1 kmh SE 8.1 mph13.0 kmh 30.26 in1024.7 mb - 0.00 in0.0 mm 0.00 in0.0 mm
01:55 AM 12.2°F-11.0°C 2.7°F-16.3°C 65% 5.8 mph SSW9.3 kmh SSW 4.6 mph7.4 kmh 30.24 in1024.0 mb - 0.00 in0.0 mm 0.00 in0.0 mm
02:00 AM 12.2°F-11.0°C 3.0°F-16.1°C 66% 4.6 mph SE7.4 kmh SE 10.4 mph16.7 kmh 30.25 in1024.4 mb - 0.00 in0.0 mm 0.00 in0.0 mm
02:10 AM 12.2°F-11.0°C 2.7°F-16.3°C 65% 5.8 mph ESE9.3 kmh ESE 4.6 mph7.4 kmh 30.24 in1024.0 mb - 0.00 in0.0 mm 0.00 in0.0 mm
02:15 AM 12.2°F-11.0°C 2.7°F-16.3°C 65% 4.6 mph SE7.4 kmh SE 3.5 mph5.6 kmh 30.24 in1024.0 mb - 0.00 in0.0 mm 0.00 in0.0 mm
02:20 AM 12.2°F-11.0°C 2.7°F-16.3°C 65% 4.6 mph SSW7.4 kmh SSW 11.5 mph18.5 kmh 30.24 in1024.0 mb - 0.00 in0.0 mm 0.00 in0.0 mm
02:25 AM 13.2°F-10.4°C 2.9°F-16.2°C 63% 8.1 mph S13.0 kmh S 11.5 mph18.5 kmh 30.24 in1024.0 mb - 0.00 in0.0 mm 0.00 in0.0 mm
02:30 AM 14.0°F-10.0°C 3.7°F-15.7°C 63% 5.8 mph E9.3 kmh E 8.1 mph13.0 kmh 30.24 in1024.0 mb - 0.00 in0.0 mm 0.00 in0.0 mm
02:35 AM 14.0°F-10.0°C 3.0°F-16.1°C 61% 6.9 mph WSW11.1 kmh WSW 11.5 mph18.5 kmh 30.23 in1023.7 mb - 0.00 in0.0 mm 0.00 in0.0 mm
02:40 AM 14.0°F-10.0°C 3.0°F-16.1°C 61% 8.1 mph SSW13.0 kmh SSW 11.5 mph18.5 kmh 30.24 in1024.0 mb - 0.00 in0.0 mm 0.00 in0.0 mm
02:45 AM 14.0°F-10.0°C 3.0°F-16.1°C 61% 9.2 mph S14.8 kmh S 10.4 mph16.7 kmh 30.25 in1024.4 mb - 0.00 in0.0 mm 0.00 in0.0 mm
02:50 AM 14.0°F-10.0°C 3.0°F-16.1°C 61% 9.2 mph SE14.8 kmh SE 11.5 mph18.5 kmh 30.24 in1024.0 mb - 0.00 in0.0 mm 0.00 in0.0 mm
02:55 AM 14.0°F-10.0°C 2.7°F-16.3°C 60% 9.2 mph S14.8 kmh S 18.4 mph29.6 kmh 30.23 in1023.7 mb - 0.00 in0.0 mm 0.00 in0.0 mm
03:00 AM 14.0°F-10.0°C 2.7°F-16.3°C 60% 10.4 mph S16.7 kmh S 9.2 mph14.8 kmh 30.23 in1023.7 mb - 0.00 in0.0 mm 0.00 in0.0 mm
03:10 AM 14.0°F-10.0°C 3.0°F-16.1°C 61% 6.9 mph S11.1 kmh S 8.1 mph13.0 kmh 30.23 in1023.7 mb - 0.00 in0.0 mm 0.00 in0.0 mm
03:15 AM 14.0°F-10.0°C 2.7°F-16.3°C 60% 6.9 mph S11.1 kmh S 9.2 mph14.8 kmh 30.21 in1023.0 mb - 0.00 in0.0 mm 0.00 in0.0 mm
03:20 AM 14.0°F-10.0°C 2.3°F-16.5°C 59% 8.1 mph SSW13.0 kmh SSW 16.1 mph25.9 kmh 30.21 in1023.0 mb - 0.00 in0.0 mm 0.00 in0.0 mm
03:25 AM 14.0°F-10.0°C 1.9°F-16.7°C 58% 9.2 mph S14.8 kmh S 12.7 mph20.4 kmh 30.21 in1023.0 mb - 0.00 in0.0 mm 0.00 in0.0 mm
03:30 AM 14.0°F-10.0°C 2.7°F-16.3°C 60% 6.9 mph SSE11.1 kmh SSE 6.9 mph11.1 kmh 30.21 in1023.0 mb - 0.00 in0.0 mm 0.00 in0.0 mm
03:35 AM 14.0°F-10.0°C 3.0°F-16.1°C 61% 6.9 mph S11.1 kmh S 11.5 mph18.5 kmh 30.21 in1023.0 mb - 0.00 in0.0 mm 0.00 in0.0 mm
03:40 AM 14.0°F-10.0°C 3.0°F-16.1°C 61% 8.1 mph S13.0 kmh S 8.1 mph13.0 kmh 30.21 in1023.0 mb - 0.00 in0.0 mm 0.00 in0.0 mm
03:45 AM 14.0°F-10.0°C 3.0°F-16.1°C 61% 5.8 mph SSE9.3 kmh SSE 10.4 mph16.7 kmh 30.21 in1023.0 mb - 0.00 in0.0 mm 0.00 in0.0 mm
03:50 AM 14.0°F-10.0°C 3.0°F-16.1°C 61% 6.9 mph S11.1 kmh S 13.8 mph22.2 kmh 30.21 in1023.0 mb - 0.00 in0.0 mm 0.00 in0.0 mm
03:55 AM 14.0°F-10.0°C 3.0°F-16.1°C 61% 6.9 mph SSW11.1 kmh SSW 11.5 mph18.5 kmh 30.20 in1022.7 mb - 0.00 in0.0 mm 0.00 in0.0 mm
04:00 AM 14.0°F-10.0°C 3.7°F-15.7°C 63% 6.9 mph S11.1 kmh S 8.1 mph13.0 kmh 30.20 in1022.7 mb - 0.00 in0.0 mm 0.00 in0.0 mm
04:10 AM 14.0°F-10.0°C 3.7°F-15.7°C 63% 8.1 mph SSW13.0 kmh SSW 9.2 mph14.8 kmh 30.19 in1022.4 mb - 0.00 in0.0 mm 0.00 in0.0 mm
04:15 AM 14.0°F-10.0°C 3.7°F-15.7°C 63% 8.1 mph S13.0 kmh S 11.5 mph18.5 kmh 30.19 in1022.4 mb - 0.00 in0.0 mm 0.00 in0.0 mm
04:20 AM 14.0°F-10.0°C 3.7°F-15.7°C 63% 9.2 mph S14.8 kmh S 8.1 mph13.0 kmh 30.18 in1022.0 mb - 0.00 in0.0 mm 0.00 in0.0 mm
04:25 AM 14.0°F-10.0°C 3.7°F-15.7°C 63% 6.9 mph S11.1 kmh S 11.5 mph18.5 kmh 30.18 in1022.0 mb - 0.00 in0.0 mm 0.00 in0.0 mm
04:30 AM 14.0°F-10.0°C 3.7°F-15.7°C 63% 8.1 mph SE13.0 kmh SE 19.6 mph31.5 kmh 30.18 in1022.0 mb - 0.00 in0.0 mm 0.00 in0.0 mm
04:35 AM 14.0°F-10.0°C 4.4°F-15.3°C 65% 8.1 mph SE13.0 kmh SE 8.1 mph13.0 kmh 30.18 in1022.0 mb - 0.00 in0.0 mm 0.00 in0.0 mm
04:40 AM 14.0°F-10.0°C 5.4°F-14.8°C 68% 9.2 mph SSE14.8 kmh SSE 11.5 mph18.5 kmh 30.18 in1022.0 mb - 0.00 in0.0 mm 0.00 in0.0 mm
04:45 AM 14.0°F-10.0°C 6.3°F-14.3°C 71% 12.7 mph SW20.4 kmh SW 11.5 mph18.5 kmh 30.17 in1021.7 mb - 0.00 in0.0 mm 0.00 in0.0 mm
04:50 AM 12.2°F-11.0°C 5.8°F-14.6°C 75% 10.4 mph S16.7 kmh S 11.5 mph18.5 kmh 30.17 in1021.7 mb - 0.00 in0.0 mm 0.00 in0.0 mm
04:55 AM 12.2°F-11.0°C 7.2°F-13.8°C 80% 9.2 mph SSE14.8 kmh SSE 11.5 mph18.5 kmh 30.17 in1021.7 mb - 0.00 in0.0 mm 0.00 in0.0 mm
05:00 AM 12.2°F-11.0°C 7.8°F-13.4°C 82% 9.2 mph S14.8 kmh S 9.2 mph14.8 kmh 30.16 in1021.3 mb - 0.00 in0.0 mm 0.00 in0.0 mm
05:10 AM 12.2°F-11.0°C 8.6°F-13.0°C 85% 9.2 mph S14.8 kmh S 5.8 mph9.3 kmh 30.15 in1021.0 mb - 0.00 in0.0 mm 0.00 in0.0 mm
05:15 AM 12.2°F-11.0°C 8.8°F-12.9°C 86% 8.1 mph SW13.0 kmh SW 10.4 mph16.7 kmh 30.15 in1021.0 mb - 0.00 in0.0 mm 0.00 in0.0 mm
05:20 AM 12.2°F-11.0°C 8.8°F-12.9°C 86% 6.9 mph SE11.1 kmh SE 12.7 mph20.4 kmh 30.15 in1021.0 mb - 0.00 in0.0 mm 0.00 in0.0 mm
05:25 AM 12.2°F-11.0°C 9.3°F-12.6°C 88% 6.9 mph SW11.1 kmh SW 10.4 mph16.7 kmh 30.14 in1020.7 mb - 0.00 in0.0 mm 0.00 in0.0 mm
05:30 AM 12.2°F-11.0°C 9.3°F-12.6°C 88% 5.8 mph SSE9.3 kmh SSE 4.6 mph7.4 kmh 30.15 in1021.0 mb - 0.00 in0.0 mm 0.00 in0.0 mm
05:35 AM 12.2°F-11.0°C 9.3°F-12.6°C 88% 6.9 mph SE11.1 kmh SE 16.1 mph25.9 kmh 30.14 in1020.7 mb - 0.00 in0.0 mm 0.00 in0.0 mm
05:40 AM 12.2°F-11.0°C 9.3°F-12.6°C 88% 9.2 mph S14.8 kmh S 15.0 mph24.1 kmh 30.14 in1020.7 mb - 0.00 in0.0 mm 0.00 in0.0 mm
05:45 AM 12.2°F-11.0°C 9.3°F-12.6°C 88% 9.2 mph ESE14.8 kmh ESE 11.5 mph18.5 kmh 30.14 in1020.7 mb - 0.00 in0.0 mm 0.00 in0.0 mm
05:50 AM 12.2°F-11.0°C 9.3°F-12.6°C 88% 6.9 mph S11.1 kmh S 10.4 mph16.7 kmh 30.14 in1020.7 mb - 0.00 in0.0 mm 0.00 in0.0 mm
05:55 AM 12.2°F-11.0°C 9.3°F-12.6°C 88% 6.9 mph SW11.1 kmh SW 6.9 mph11.1 kmh 30.14 in1020.7 mb - 0.00 in0.0 mm 0.00 in0.0 mm
06:00 AM 12.2°F-11.0°C 9.3°F-12.6°C 88% 5.8 mph SSE9.3 kmh SSE 9.2 mph14.8 kmh 30.14 in1020.7 mb - 0.00 in0.0 mm 0.00 in0.0 mm
06:10 AM 12.2°F-11.0°C 9.3°F-12.6°C 88% 4.6 mph S7.4 kmh S 4.6 mph7.4 kmh 30.13 in1020.3 mb - 0.00 in0.0 mm 0.00 in0.0 mm
06:15 AM 12.2°F-11.0°C 9.3°F-12.6°C 88% 5.8 mph SSE9.3 kmh SSE 11.5 mph18.5 kmh 30.14 in1020.7 mb - 0.00 in0.0 mm 0.00 in0.0 mm
06:20 AM 12.2°F-11.0°C 9.3°F-12.6°C 88% 5.8 mph SE9.3 kmh SE 8.1 mph13.0 kmh 30.13 in1020.3 mb - 0.00 in0.0 mm 0.00 in0.0 mm
06:25 AM 12.2°F-11.0°C 9.3°F-12.6°C 88% 5.8 mph SSE9.3 kmh SSE 9.2 mph14.8 kmh 30.12 in1020.0 mb - 0.00 in0.0 mm 0.00 in0.0 mm
06:30 AM 12.2°F-11.0°C 9.3°F-12.6°C 88% 4.6 mph ESE7.4 kmh ESE 12.7 mph20.4 kmh 30.12 in1020.0 mb - 0.00 in0.0 mm 0.00 in0.0 mm
06:35 AM 13.4°F-10.3°C 10.5°F-11.9°C 88% 6.9 mph ESE11.1 kmh ESE 8.1 mph13.0 kmh 30.13 in1020.3 mb - 0.00 in0.0 mm 0.00 in0.0 mm
06:40 AM 14.0°F-10.0°C 11.1°F-11.6°C 88% 5.8 mph S9.3 kmh S 10.4 mph16.7 kmh 30.12 in1020.0 mb - 0.00 in0.0 mm 0.00 in0.0 mm
06:45 AM 14.0°F-10.0°C 11.1°F-11.6°C 88% 6.9 mph SE11.1 kmh SE 10.4 mph16.7 kmh 30.11 in1019.6 mb - 0.00 in0.0 mm 0.00 in0.0 mm
06:50 AM 14.0°F-10.0°C 11.1°F-11.6°C 88% 6.9 mph SSE11.1 kmh SSE 9.2 mph14.8 kmh 30.11 in1019.6 mb - 0.00 in0.0 mm 0.00 in0.0 mm
06:55 AM 14.0°F-10.0°C 11.1°F-11.6°C 88% 8.1 mph SSW13.0 kmh SSW 10.4 mph16.7 kmh 30.11 in1019.6 mb - 0.00 in0.0 mm 0.00 in0.0 mm
07:00 AM 14.0°F-10.0°C 11.1°F-11.6°C 88% 6.9 mph SW11.1 kmh SW 8.1 mph13.0 kmh 30.11 in1019.6 mb - 0.00 in0.0 mm 0.00 in0.0 mm
07:10 AM 14.0°F-10.0°C 11.1°F-11.6°C 88% 9.2 mph S14.8 kmh S 12.7 mph20.4 kmh 30.11 in1019.6 mb - 0.00 in0.0 mm 0.00 in0.0 mm
07:15 AM 14.0°F-10.0°C 10.6°F-11.9°C 86% 8.1 mph SW13.0 kmh SW 11.5 mph18.5 kmh 30.10 in1019.3 mb - 0.00 in0.0 mm 0.00 in0.0 mm
07:20 AM 14.0°F-10.0°C 10.6°F-11.9°C 86% 8.1 mph E13.0 kmh E 18.4 mph29.6 kmh 30.10 in1019.3 mb - 0.00 in0.0 mm 0.00 in0.0 mm
07:25 AM 14.0°F-10.0°C 10.6°F-11.9°C 86% 8.1 mph E13.0 kmh E 11.5 mph18.5 kmh 30.09 in1019.0 mb - 0.00 in0.0 mm 0.00 in0.0 mm
07:30 AM 14.0°F-10.0°C 10.6°F-11.9°C 86% 8.1 mph S13.0 kmh S 15.0 mph24.1 kmh 30.09 in1019.0 mb - 0.00 in0.0 mm 0.00 in0.0 mm
07:35 AM 14.0°F-10.0°C 10.6°F-11.9°C 86% 9.2 mph S14.8 kmh S 15.0 mph24.1 kmh 30.07 in1018.3 mb - 0.00 in0.0 mm 0.00 in0.0 mm
07:40 AM 14.0°F-10.0°C 10.6°F-11.9°C 86% 8.1 mph SW13.0 kmh SW 11.5 mph18.5 kmh 30.08 in1018.6 mb - 0.00 in0.0 mm 0.00 in0.0 mm
07:45 AM 14.0°F-10.0°C 10.6°F-11.9°C 86% 8.1 mph SSE13.0 kmh SSE 6.9 mph11.1 kmh 30.09 in1019.0 mb - 0.00 in0.0 mm 0.00 in0.0 mm
07:50 AM 14.0°F-10.0°C 10.6°F-11.9°C 86% 9.2 mph S14.8 kmh S 10.4 mph16.7 kmh 30.09 in1019.0 mb - 0.00 in0.0 mm 0.00 in0.0 mm
07:55 AM 15.8°F-9.0°C 12.4°F-10.9°C 86% 6.9 mph WSW11.1 kmh WSW 6.9 mph11.1 kmh 30.08 in1018.6 mb - 0.00 in0.0 mm 0.00 in0.0 mm
08:00 AM 15.8°F-9.0°C 12.4°F-10.9°C 86% 8.1 mph SW13.0 kmh SW 11.5 mph18.5 kmh 30.07 in1018.3 mb - 0.00 in0.0 mm 0.00 in0.0 mm
08:10 AM 15.8°F-9.0°C 12.4°F-10.9°C 86% 8.1 mph SW13.0 kmh SW 8.1 mph13.0 kmh 30.07 in1018.3 mb - 0.00 in0.0 mm 0.00 in0.0 mm
08:15 AM 15.8°F-9.0°C 12.1°F-11.1°C 85% 8.1 mph S13.0 kmh S 6.9 mph11.1 kmh 30.07 in1018.3 mb - 0.00 in0.0 mm 0.00 in0.0 mm
08:20 AM 15.8°F-9.0°C 12.1°F-11.1°C 85% 8.1 mph S13.0 kmh S 8.1 mph13.0 kmh 30.07 in1018.3 mb - 0.00 in0.0 mm 0.00 in0.0 mm
08:25 AM 15.8°F-9.0°C 11.6°F-11.3°C 83% 8.1 mph S13.0 kmh S 9.2 mph14.8 kmh 30.07 in1018.3 mb - 0.00 in0.0 mm 0.00 in0.0 mm
08:30 AM 15.8°F-9.0°C 11.6°F-11.3°C 83% 8.1 mph SSW13.0 kmh SSW 11.5 mph18.5 kmh 30.07 in1018.3 mb - 0.00 in0.0 mm 0.00 in0.0 mm
08:35 AM 15.8°F-9.0°C 11.6°F-11.3°C 83% 10.4 mph S16.7 kmh S 17.3 mph27.8 kmh 30.07 in1018.3 mb - 0.00 in0.0 mm 0.00 in0.0 mm
08:40 AM 15.8°F-9.0°C 11.6°F-11.3°C 83% 8.1 mph SSW13.0 kmh SSW 11.5 mph18.5 kmh 30.06 in1017.9 mb - 0.00 in0.0 mm 0.00 in0.0 mm
08:45 AM 15.8°F-9.0°C 11.0°F-11.7°C 81% 11.5 mph S18.5 kmh S 12.7 mph20.4 kmh 30.07 in1018.3 mb - 0.00 in0.0 mm 0.00 in0.0 mm
08:50 AM 17.6°F-8.0°C 12.8°F-10.7°C 81% 8.1 mph S13.0 kmh S 10.4 mph16.7 kmh 30.06 in1017.9 mb - 0.00 in0.0 mm 0.00 in0.0 mm
08:55 AM 17.6°F-8.0°C 12.8°F-10.7°C 81% 9.2 mph SW14.8 kmh SW 9.2 mph14.8 kmh 30.07 in1018.3 mb - 0.00 in0.0 mm 0.00 in0.0 mm
09:00 AM 17.6°F-8.0°C 12.5°F-10.8°C 80% 9.2 mph SSE14.8 kmh SSE 9.2 mph14.8 kmh 30.06 in1017.9 mb - 0.00 in0.0 mm 0.00 in0.0 mm
09:10 AM 17.6°F-8.0°C 12.2°F-11.0°C 79% 10.4 mph SSW16.7 kmh SSW 10.4 mph16.7 kmh 30.07 in1018.3 mb - 0.00 in0.0 mm 0.00 in0.0 mm
09:15 AM 17.6°F-8.0°C 12.2°F-11.0°C 79% 9.2 mph SE14.8 kmh SE 8.1 mph13.0 kmh 30.06 in1017.9 mb - 0.00 in0.0 mm 0.00 in0.0 mm
09:20 AM 17.6°F-8.0°C 11.9°F-11.2°C 78% 9.2 mph S14.8 kmh S 10.4 mph16.7 kmh 30.06 in1017.9 mb - 0.00 in0.0 mm 0.00 in0.0 mm
09:25 AM 17.6°F-8.0°C 11.9°F-11.2°C 78% 9.2 mph S14.8 kmh S 12.7 mph20.4 kmh 30.05 in1017.6 mb - 0.00 in0.0 mm 0.00 in0.0 mm
09:30 AM 17.6°F-8.0°C 11.9°F-11.2°C 78% 9.2 mph SE14.8 kmh SE 5.8 mph9.3 kmh 30.05 in1017.6 mb - 0.00 in0.0 mm 0.00 in0.0 mm
09:35 AM 17.6°F-8.0°C 11.0°F-11.7°C 75% 10.4 mph S16.7 kmh S 17.3 mph27.8 kmh 30.05 in1017.6 mb - 0.00 in0.0 mm 0.00 in0.0 mm
09:40 AM 17.6°F-8.0°C 11.0°F-11.7°C 75% 6.9 mph SSW11.1 kmh SSW 5.8 mph9.3 kmh 30.05 in1017.6 mb - 0.00 in0.0 mm 0.00 in0.0 mm
09:45 AM 17.6°F-8.0°C 11.0°F-11.7°C 75% 8.1 mph S13.0 kmh S 11.5 mph18.5 kmh 30.05 in1017.6 mb - 0.00 in0.0 mm 0.00 in0.0 mm
09:50 AM 17.6°F-8.0°C 11.0°F-11.7°C 75% 9.2 mph S14.8 kmh S 6.9 mph11.1 kmh 30.05 in1017.6 mb - 0.00 in0.0 mm 0.00 in0.0 mm
09:55 AM 17.6°F-8.0°C 11.0°F-11.7°C 75% 11.5 mph SE18.5 kmh SE 11.5 mph18.5 kmh 30.05 in1017.6 mb - 0.00 in0.0 mm 0.00 in0.0 mm
10:00 AM 19.4°F-7.0°C 12.8°F-10.7°C 75% 11.5 mph S18.5 kmh S 17.3 mph27.8 kmh 30.05 in1017.6 mb - 0.00 in0.0 mm 0.00 in0.0 mm
10:10 AM 21.2°F-6.0°C 12.9°F-10.6°C 70% 8.1 mph SW13.0 kmh SW 12.7 mph20.4 kmh 30.05 in1017.6 mb - 0.00 in0.0 mm 0.00 in0.0 mm
10:15 AM 19.4°F-7.0°C 11.2°F-11.6°C 70% 8.1 mph S13.0 kmh S 8.1 mph13.0 kmh 30.04 in1017.3 mb - 0.00 in0.0 mm 0.00 in0.0 mm
10:20 AM 21.2°F-6.0°C 12.9°F-10.6°C 70% 8.1 mph S13.0 kmh S 11.5 mph18.5 kmh 30.04 in1017.3 mb - 0.00 in0.0 mm 0.00 in0.0 mm
10:25 AM 21.2°F-6.0°C 12.9°F-10.6°C 70% 11.5 mph SSW18.5 kmh SSW 12.7 mph20.4 kmh 30.03 in1016.9 mb - 0.00 in0.0 mm 0.00 in0.0 mm
10:30 AM 21.2°F-6.0°C 12.9°F-10.6°C 70% 10.4 mph WSW16.7 kmh WSW 12.7 mph20.4 kmh 30.03 in1016.9 mb - 0.00 in0.0 mm 0.00 in0.0 mm
10:35 AM 21.2°F-6.0°C 12.9°F-10.6°C 70% 11.5 mph S18.5 kmh S 12.7 mph20.4 kmh 30.03 in1016.9 mb - 0.00 in0.0 mm 0.00 in0.0 mm
10:40 AM 21.2°F-6.0°C 12.9°F-10.6°C 70% 9.2 mph S14.8 kmh S 11.5 mph18.5 kmh 30.03 in1016.9 mb - 0.00 in0.0 mm 0.00 in0.0 mm
10:45 AM 21.2°F-6.0°C 12.9°F-10.6°C 70% 9.2 mph S14.8 kmh S 12.7 mph20.4 kmh 30.03 in1016.9 mb - 0.00 in0.0 mm 0.00 in0.0 mm
10:50 AM 21.2°F-6.0°C 13.3°F-10.4°C 71% 9.2 mph SW14.8 kmh SW 11.5 mph18.5 kmh 30.03 in1016.9 mb - 0.00 in0.0 mm 0.00 in0.0 mm
10:55 AM 21.2°F-6.0°C 13.3°F-10.4°C 71% 8.1 mph S13.0 kmh S 5.8 mph9.3 kmh 30.02 in1016.6 mb - 0.00 in0.0 mm 0.00 in0.0 mm
11:00 AM 21.2°F-6.0°C 13.3°F-10.4°C 71% 8.1 mph S13.0 kmh S 10.4 mph16.7 kmh 30.02 in1016.6 mb - 0.00 in0.0 mm 0.00 in0.0 mm
11:10 AM 21.2°F-6.0°C 13.3°F-10.4°C 71% 9.2 mph 14.8 kmh 10.4 mph16.7 kmh 30.02 in1016.6 mb - 0.00 in0.0 mm 0.00 in0.0 mm
11:20 AM 21.2°F-6.0°C 13.3°F-10.4°C 71% 9.2 mph S14.8 kmh S 5.8 mph9.3 kmh 30.01 in1016.3 mb - 0.00 in0.0 mm 0.00 in0.0 mm
11:25 AM 21.2°F-6.0°C 13.3°F-10.4°C 71% 9.2 mph S14.8 kmh S 5.8 mph9.3 kmh 30.01 in1016.3 mb - 0.00 in0.0 mm 0.00 in0.0 mm
11:30 AM 21.2°F-6.0°C 13.3°F-10.4°C 71% 9.2 mph S14.8 kmh S 5.8 mph9.3 kmh 30.01 in1016.3 mb - 0.00 in0.0 mm 0.00 in0.0 mm
11:40 AM 21.2°F-6.0°C 13.3°F-10.4°C 71% 9.2 mph S14.8 kmh S 5.8 mph9.3 kmh 30.01 in1016.3 mb - 0.00 in0.0 mm 0.00 in0.0 mm
11:45 AM 21.2°F-6.0°C 13.3°F-10.4°C 71% 9.2 mph S14.8 kmh S 5.8 mph9.3 kmh 30.01 in1016.3 mb - 0.00 in0.0 mm 0.00 in0.0 mm
12:00 PM 21.2°F-6.0°C 13.3°F-10.4°C 71% 9.2 mph S14.8 kmh S 5.8 mph9.3 kmh 30.01 in1016.3 mb - 0.00 in0.0 mm 0.00 in0.0 mm
12:10 PM 21.2°F-6.0°C 13.3°F-10.4°C 71% 9.2 mph S14.8 kmh S 5.8 mph9.3 kmh 30.01 in1016.3 mb - 0.00 in0.0 mm 0.00 in0.0 mm
12:15 PM 21.2°F-6.0°C 13.3°F-10.4°C 71% 9.2 mph S14.8 kmh S 5.8 mph9.3 kmh 30.01 in1016.3 mb - 0.00 in0.0 mm 0.00 in0.0 mm
12:25 PM 21.2°F-6.0°C 13.3°F-10.4°C 71% 9.2 mph S14.8 kmh S 5.8 mph9.3 kmh 30.01 in1016.3 mb - 0.00 in0.0 mm 0.00 in0.0 mm
12:30 PM 21.2°F-6.0°C 13.3°F-10.4°C 71% 9.2 mph S14.8 kmh S 5.8 mph9.3 kmh 30.01 in1016.3 mb - 0.00 in0.0 mm 0.00 in0.0 mm
12:45 PM 21.2°F-6.0°C 13.3°F-10.4°C 71% 9.2 mph S14.8 kmh S 5.8 mph9.3 kmh 30.01 in1016.3 mb - 0.00 in0.0 mm 0.00 in0.0 mm
12:50 PM 21.2°F-6.0°C 13.3°F-10.4°C 71% 9.2 mph S14.8 kmh S 5.8 mph9.3 kmh 30.01 in1016.3 mb - 0.00 in0.0 mm 0.00 in0.0 mm
01:10 PM 21.2°F-6.0°C 13.3°F-10.4°C 71% 9.2 mph S14.8 kmh S 5.8 mph9.3 kmh 30.01 in1016.3 mb - 0.00 in0.0 mm 0.00 in0.0 mm
01:15 PM 21.2°F-6.0°C 13.3°F-10.4°C 71% 9.2 mph S14.8 kmh S 5.8 mph9.3 kmh 30.01 in1016.3 mb - 0.00 in0.0 mm 0.00 in0.0 mm
01:25 PM 21.2°F-6.0°C 13.3°F-10.4°C 71% 9.2 mph S14.8 kmh S 5.8 mph9.3 kmh 30.01 in1016.3 mb - 0.00 in0.0 mm 0.00 in0.0 mm
01:30 PM 21.2°F-6.0°C 13.3°F-10.4°C 71% 9.2 mph S14.8 kmh S 5.8 mph9.3 kmh 30.01 in1016.3 mb - 0.00 in0.0 mm 0.00 in0.0 mm
01:45 PM 21.2°F-6.0°C 13.3°F-10.4°C 71% 9.2 mph S14.8 kmh S 5.8 mph9.3 kmh 30.01 in1016.3 mb - 0.00 in0.0 mm 0.00 in0.0 mm
01:50 PM 21.2°F-6.0°C 13.3°F-10.4°C 71% 9.2 mph S14.8 kmh S 5.8 mph9.3 kmh 30.01 in1016.3 mb - 0.00 in0.0 mm 0.00 in0.0 mm
02:10 PM 21.2°F-6.0°C 13.3°F-10.4°C 71% 9.2 mph S14.8 kmh S 5.8 mph9.3 kmh 30.01 in1016.3 mb - 0.00 in0.0 mm 0.00 in0.0 mm
02:25 PM 21.2°F-6.0°C 13.3°F-10.4°C 71% 9.2 mph S14.8 kmh S 5.8 mph9.3 kmh 30.01 in1016.3 mb - 0.00 in0.0 mm 0.00 in0.0 mm
02:30 PM 21.2°F-6.0°C 13.3°F-10.4°C 71% 9.2 mph S14.8 kmh S 5.8 mph9.3 kmh 30.01 in1016.3 mb - 0.00 in0.0 mm 0.00 in0.0 mm
02:40 PM 21.2°F-6.0°C 13.3°F-10.4°C 71% 9.2 mph S14.8 kmh S 5.8 mph9.3 kmh 30.01 in1016.3 mb - 0.00 in0.0 mm 0.00 in0.0 mm
02:45 PM 21.2°F-6.0°C 13.3°F-10.4°C 71% 9.2 mph S14.8 kmh S 5.8 mph9.3 kmh 30.01 in1016.3 mb - 0.00 in0.0 mm 0.00 in0.0 mm
02:50 PM 21.2°F-6.0°C 13.3°F-10.4°C 71% 9.2 mph S14.8 kmh S 5.8 mph9.3 kmh 30.01 in1016.3 mb - 0.00 in0.0 mm 0.00 in0.0 mm
03:00 PM 21.2°F-6.0°C 13.3°F-10.4°C 71% 9.2 mph S14.8 kmh S 5.8 mph9.3 kmh 30.01 in1016.3 mb - 0.00 in0.0 mm 0.00 in0.0 mm
03:15 PM 21.2°F-6.0°C 13.3°F-10.4°C 71% 9.2 mph S14.8 kmh S 5.8 mph9.3 kmh 30.01 in1016.3 mb - 0.00 in0.0 mm 0.00 in0.0 mm
03:20 PM 21.2°F-6.0°C 13.3°F-10.4°C 71% 9.2 mph S14.8 kmh S 5.8 mph9.3 kmh 30.01 in1016.3 mb - 0.00 in0.0 mm 0.00 in0.0 mm
03:35 PM 21.2°F-6.0°C 13.3°F-10.4°C 71% 9.2 mph S14.8 kmh S 5.8 mph9.3 kmh 30.01 in1016.3 mb - 0.00 in0.0 mm 0.00 in0.0 mm
03:40 PM 21.2°F-6.0°C 13.3°F-10.4°C 71% 9.2 mph S14.8 kmh S 5.8 mph9.3 kmh 30.01 in1016.3 mb - 0.00 in0.0 mm 0.00 in0.0 mm
03:45 PM 21.2°F-6.0°C 13.3°F-10.4°C 71% 9.2 mph S14.8 kmh S 5.8 mph9.3 kmh 30.01 in1016.3 mb - 0.00 in0.0 mm 0.00 in0.0 mm
03:55 PM 21.2°F-6.0°C 13.3°F-10.4°C 71% 9.2 mph S14.8 kmh S 5.8 mph9.3 kmh 30.01 in1016.3 mb - 0.00 in0.0 mm 0.00 in0.0 mm
04:00 PM 21.2°F-6.0°C 13.3°F-10.4°C 71% 9.2 mph S14.8 kmh S 5.8 mph9.3 kmh 30.01 in1016.3 mb - 0.00 in0.0 mm 0.00 in0.0 mm
04:10 PM 21.2°F-6.0°C 13.3°F-10.4°C 71% 9.2 mph S14.8 kmh S 5.8 mph9.3 kmh 30.01 in1016.3 mb - 0.00 in0.0 mm 0.00 in0.0 mm
04:15 PM 21.2°F-6.0°C 13.3°F-10.4°C 71% 9.2 mph S14.8 kmh S 5.8 mph9.3 kmh 30.01 in1016.3 mb - 0.00 in0.0 mm 0.00 in0.0 mm
04:30 PM 21.2°F-6.0°C 13.3°F-10.4°C 71% 9.2 mph S14.8 kmh S 5.8 mph9.3 kmh 30.01 in1016.3 mb - 0.00 in0.0 mm 0.00 in0.0 mm
04:35 PM 21.2°F-6.0°C 13.3°F-10.4°C 71% 9.2 mph S14.8 kmh S 5.8 mph9.3 kmh 30.01 in1016.3 mb - 0.00 in0.0 mm 0.00 in0.0 mm
04:50 PM 21.2°F-6.0°C 13.3°F-10.4°C 71% 9.2 mph S14.8 kmh S 5.8 mph9.3 kmh 30.01 in1016.3 mb - 0.00 in0.0 mm 0.00 in0.0 mm
04:55 PM 21.2°F-6.0°C 13.3°F-10.4°C 71% 9.2 mph S14.8 kmh S 5.8 mph9.3 kmh 30.01 in1016.3 mb - 0.00 in0.0 mm 0.00 in0.0 mm
05:10 PM 21.2°F-6.0°C 13.3°F-10.4°C 71% 9.2 mph S14.8 kmh S 5.8 mph9.3 kmh 30.01 in1016.3 mb - 0.00 in0.0 mm 0.00 in0.0 mm
05:15 PM 21.2°F-6.0°C 13.3°F-10.4°C 71% 9.2 mph S14.8 kmh S 5.8 mph9.3 kmh 30.01 in1016.3 mb - 0.00 in0.0 mm 0.00 in0.0 mm
05:25 PM 21.2°F-6.0°C 13.3°F-10.4°C 71% 9.2 mph S14.8 kmh S 5.8 mph9.3 kmh 30.01 in1016.3 mb - 0.00 in0.0 mm 0.00 in0.0 mm
05:30 PM 21.2°F-6.0°C 13.3°F-10.4°C 71% 9.2 mph S14.8 kmh S 5.8 mph9.3 kmh 30.01 in1016.3 mb - 0.00 in0.0 mm 0.00 in0.0 mm
05:35 PM 21.2°F-6.0°C 13.3°F-10.4°C 71% 9.2 mph S14.8 kmh S 5.8 mph9.3 kmh 30.01 in1016.3 mb - 0.00 in0.0 mm 0.00 in0.0 mm
05:45 PM 21.2°F-6.0°C 13.3°F-10.4°C 71% 9.2 mph S14.8 kmh S 5.8 mph9.3 kmh 30.01 in1016.3 mb - 0.00 in0.0 mm 0.00 in0.0 mm
05:50 PM 21.2°F-6.0°C 13.3°F-10.4°C 71% 9.2 mph S14.8 kmh S 5.8 mph9.3 kmh 30.01 in1016.3 mb - 0.00 in0.0 mm 0.00 in0.0 mm
06:10 PM 21.2°F-6.0°C 13.3°F-10.4°C 71% 9.2 mph S14.8 kmh S 5.8 mph9.3 kmh 30.01 in1016.3 mb - 0.00 in0.0 mm 0.00 in0.0 mm
06:25 PM 21.2°F-6.0°C 13.3°F-10.4°C 71% 9.2 mph S14.8 kmh S 5.8 mph9.3 kmh 30.01 in1016.3 mb - 0.00 in0.0 mm 0.00 in0.0 mm
06:30 PM 21.2°F-6.0°C 13.3°F-10.4°C 71% 9.2 mph S14.8 kmh S 5.8 mph9.3 kmh 30.01 in1016.3 mb - 0.00 in0.0 mm 0.00 in0.0 mm
06:40 PM 21.2°F-6.0°C 13.3°F-10.4°C 71% 9.2 mph S14.8 kmh S 5.8 mph9.3 kmh 30.01 in1016.3 mb - 0.00 in0.0 mm 0.00 in0.0 mm
06:45 PM 21.2°F-6.0°C 13.3°F-10.4°C 71% 9.2 mph S14.8 kmh S 5.8 mph9.3 kmh 30.01 in1016.3 mb - 0.00 in0.0 mm 0.00 in0.0 mm
06:50 PM 21.2°F-6.0°C 13.3°F-10.4°C 71% 9.2 mph S14.8 kmh S 5.8 mph9.3 kmh 30.01 in1016.3 mb - 0.00 in0.0 mm 0.00 in0.0 mm
07:00 PM 21.2°F-6.0°C 13.3°F-10.4°C 71% 9.2 mph S14.8 kmh S 5.8 mph9.3 kmh 30.01 in1016.3 mb - 0.00 in0.0 mm 0.00 in0.0 mm
07:15 PM 21.2°F-6.0°C 13.3°F-10.4°C 71% 9.2 mph S14.8 kmh S 5.8 mph9.3 kmh 30.01 in1016.3 mb - 0.00 in0.0 mm 0.00 in0.0 mm
07:20 PM 21.2°F-6.0°C 13.3°F-10.4°C 71% 9.2 mph S14.8 kmh S 5.8 mph9.3 kmh 30.01 in1016.3 mb - 0.00 in0.0 mm 0.00 in0.0 mm
07:35 PM 21.2°F-6.0°C 13.3°F-10.4°C 71% 9.2 mph S14.8 kmh S 5.8 mph9.3 kmh 30.01 in1016.3 mb - 0.00 in0.0 mm 0.00 in0.0 mm
07:40 PM 21.2°F-6.0°C 13.3°F-10.4°C 71% 9.2 mph S14.8 kmh S 5.8 mph9.3 kmh 30.01 in1016.3 mb - 0.00 in0.0 mm 0.00 in0.0 mm
07:55 PM 21.2°F-6.0°C 13.3°F-10.4°C 71% 9.2 mph S14.8 kmh S 5.8 mph9.3 kmh 30.01 in1016.3 mb - 0.00 in0.0 mm 0.00 in0.0 mm
08:00 PM 21.2°F-6.0°C 13.3°F-10.4°C 71% 9.2 mph S14.8 kmh S 5.8 mph9.3 kmh 30.01 in1016.3 mb - 0.00 in0.0 mm 0.00 in0.0 mm
08:10 PM 21.2°F-6.0°C 13.3°F-10.4°C 71% 9.2 mph S14.8 kmh S 5.8 mph9.3 kmh 30.01 in1016.3 mb - 0.00 in0.0 mm 0.00 in0.0 mm
08:15 PM 21.2°F-6.0°C 13.3°F-10.4°C 71% 9.2 mph S14.8 kmh S 5.8 mph9.3 kmh 30.01 in1016.3 mb - 0.00 in0.0 mm 0.00 in0.0 mm
08:25 PM 21.2°F-6.0°C 13.3°F-10.4°C 71% 9.2 mph S14.8 kmh S 5.8 mph9.3 kmh 30.01 in1016.3 mb - 0.00 in0.0 mm 0.00 in0.0 mm
08:30 PM 21.2°F-6.0°C 13.3°F-10.4°C 71% 9.2 mph S14.8 kmh S 5.8 mph9.3 kmh 30.01 in1016.3 mb - 0.00 in0.0 mm 0.00 in0.0 mm
08:35 PM 21.2°F-6.0°C 13.3°F-10.4°C 71% 9.2 mph S14.8 kmh S 5.8 mph9.3 kmh 30.01 in1016.3 mb - 0.00 in0.0 mm 0.00 in0.0 mm
08:45 PM 21.2°F-6.0°C 13.3°F-10.4°C 71% 9.2 mph S14.8 kmh S 5.8 mph9.3 kmh 30.01 in1016.3 mb - 0.00 in0.0 mm 0.00 in0.0 mm
08:50 PM 21.2°F-6.0°C 13.3°F-10.4°C 71% 9.2 mph S14.8 kmh S 5.8 mph9.3 kmh 30.01 in1016.3 mb - 0.00 in0.0 mm 0.00 in0.0 mm
09:10 PM 21.2°F-6.0°C 13.3°F-10.4°C 71% 9.2 mph S14.8 kmh S 5.8 mph9.3 kmh 30.01 in1016.3 mb - 0.00 in0.0 mm 0.00 in0.0 mm
09:25 PM 21.2°F-6.0°C 13.3°F-10.4°C 71% 9.2 mph S14.8 kmh S 5.8 mph9.3 kmh 30.01 in1016.3 mb - 0.00 in0.0 mm 0.00 in0.0 mm
09:30 PM 21.2°F-6.0°C 13.3°F-10.4°C 71% 9.2 mph S14.8 kmh S 5.8 mph9.3 kmh 30.01 in1016.3 mb - 0.00 in0.0 mm 0.00 in0.0 mm
09:40 PM 21.2°F-6.0°C 13.3°F-10.4°C 71% 9.2 mph S14.8 kmh S 5.8 mph9.3 kmh 30.01 in1016.3 mb - 0.00 in0.0 mm 0.00 in0.0 mm
09:45 PM 21.2°F-6.0°C 13.3°F-10.4°C 71% 9.2 mph S14.8 kmh S 5.8 mph9.3 kmh 30.01 in1016.3 mb - 0.00 in0.0 mm 0.00 in0.0 mm
09:50 PM 21.2°F-6.0°C 13.3°F-10.4°C 71% 9.2 mph S14.8 kmh S 5.8 mph9.3 kmh 30.01 in1016.3 mb - 0.00 in0.0 mm 0.00 in0.0 mm
10:00 PM 21.2°F-6.0°C 13.3°F-10.4°C 71% 9.2 mph S14.8 kmh S 5.8 mph9.3 kmh 30.01 in1016.3 mb - 0.00 in0.0 mm 0.00 in0.0 mm
10:15 PM 21.2°F-6.0°C 13.3°F-10.4°C 71% 9.2 mph S14.8 kmh S 5.8 mph9.3 kmh 30.01 in1016.3 mb - 0.00 in0.0 mm 0.00 in0.0 mm
10:20 PM 21.2°F-6.0°C 13.3°F-10.4°C 71% 9.2 mph S14.8 kmh S 5.8 mph9.3 kmh 30.01 in1016.3 mb - 0.00 in0.0 mm 0.00 in0.0 mm
10:35 PM 21.2°F-6.0°C 13.3°F-10.4°C 71% 9.2 mph S14.8 kmh S 5.8 mph9.3 kmh 30.01 in1016.3 mb - 0.00 in0.0 mm 0.00 in0.0 mm
10:40 PM 21.2°F-6.0°C 13.3°F-10.4°C 71% 9.2 mph S14.8 kmh S 5.8 mph9.3 kmh 30.01 in1016.3 mb - 0.00 in0.0 mm 0.00 in0.0 mm
10:45 PM 21.2°F-6.0°C 13.3°F-10.4°C 71% 9.2 mph S14.8 kmh S 5.8 mph9.3 kmh 30.01 in1016.3 mb - 0.00 in0.0 mm 0.00 in0.0 mm
10:55 PM 21.2°F-6.0°C 13.3°F-10.4°C 71% 9.2 mph S14.8 kmh S 5.8 mph9.3 kmh 30.01 in1016.3 mb - 0.00 in0.0 mm 0.00 in0.0 mm
11:00 PM 21.2°F-6.0°C 13.3°F-10.4°C 71% 9.2 mph S14.8 kmh S 5.8 mph9.3 kmh 30.01 in1016.3 mb - 0.00 in0.0 mm 0.00 in0.0 mm
11:10 PM 21.2°F-6.0°C 13.3°F-10.4°C 71% 9.2 mph S14.8 kmh S 5.8 mph9.3 kmh 30.01 in1016.3 mb - 0.00 in0.0 mm 0.00 in0.0 mm
11:15 PM 21.2°F-6.0°C 13.3°F-10.4°C 71% 9.2 mph S14.8 kmh S 5.8 mph9.3 kmh 30.01 in1016.3 mb - 0.00 in0.0 mm 0.00 in0.0 mm
11:25 PM 21.2°F-6.0°C 13.3°F-10.4°C 71% 9.2 mph S14.8 kmh S 5.8 mph9.3 kmh 30.01 in1016.3 mb - 0.00 in0.0 mm 0.00 in0.0 mm
11:30 PM 21.2°F-6.0°C 13.3°F-10.4°C 71% 9.2 mph S14.8 kmh S 5.8 mph9.3 kmh 30.01 in1016.3 mb - 0.00 in0.0 mm 0.00 in0.0 mm
11:45 PM 21.2°F-6.0°C 13.3°F-10.4°C 71% 9.2 mph S14.8 kmh S 5.8 mph9.3 kmh 30.01 in1016.3 mb - 0.00 in0.0 mm 0.00 in0.0 mm
11:50 PM 21.2°F-6.0°C 13.3°F-10.4°C 71% 9.2 mph S14.8 kmh S 5.8 mph9.3 kmh 30.01 in1016.3 mb - 0.00 in0.0 mm 0.00 in0.0 mm